Arkholme, United Kingdom
Current Conditions -  °F | °C
As of 5:50 AM on Wednesday 22 Oct 2014 (Local Time) from EGXE Reporting Station
Scattered Clouds Scattered Clouds  
Wind Chill: 42°   Ceiling: Unl
Heat Index: 45°   Visibility: 6mi
Dew Point: 39°   Wind: 5mph
Humidity: 81%   Direction: 270°W
Pressure: 30.12"   Gusts: NA
Location:  54.13°N, 2.75°W
Report Text: EGXE 220450Z 27004KT 9999 SCT045 07/04 Q1020
Loading
Personal Weather Stations






























Interactive Weather Map New forecast layout! Learn more

10-Day Weather Forecast

Advertisements
Track Severe Weather on mobile